Terminal Aerodrome Forecast
Issued by NWS

Home | Current Version | Previous Version | Text Only | Print | Product List | Glossary On
Versions: 1 2 3 4 5 6 7 8 9 10 11 12
000
FTUS46 KMTR 032331
TAFSJC
TAF
KSJC 032331Z 0400/0424 31011KT P6SM FEW050
     FM040400 30006KT P6SM SKC
     FM041200 VRB03KT P6SM BKN011
     FM041630 VRB04KT P6SM FEW012
     FM042100 31012KT P6SM SKC=

USA.gov is the U.S. government's official web portal to all federal, state and local government web resources and services.